Time;durP1;ratioP1;P1;durP2;ratioP2;P2;SDS_P1;SDS_P2;PMS_P1;PMS_P2;Temp;Humidity;BMP_temperature;BMP_pressure;BME280_temperature;BME280_humidity;BME280_pressure;Samples;Min_cycle;Max_cycle;Signal;HPM_P1;HPM_P2
2023/05/04 00:00:42;;;;;;;6.40;1.70;;;2.30;99.90;;;0.76;80.90;102310.75;5019874;28;20672;-68
2023/05/04 00:03:08;;;;;;;9.85;2.20;;;2.30;99.90;;;0.76;80.78;102314.22;5018271;28;20108;-69
2023/05/04 00:05:34;;;;;;;10.65;3.20;;;2.30;99.90;;;0.79;81.12;102306.47;5020892;28;20116;-68
2023/05/04 00:08:00;;;;;;;14.75;3.05;;;2.30;99.90;;;0.85;82.00;102307.47;5020718;28;20503;-68
2023/05/04 00:10:27;;;;;;;9.45;1.92;;;2.30;99.90;;;0.83;82.09;102299.63;5020705;28;20026;-69
2023/05/04 00:12:53;;;;;;;8.10;2.22;;;2.30;99.90;;;0.79;81.95;102303.00;5017280;28;20038;-68
2023/05/04 00:15:19;;;;;;;9.07;2.60;;;2.30;99.90;;;0.72;82.00;102304.63;5034687;28;20617;-69
2023/05/04 00:17:45;;;;;;;10.35;2.60;;;2.20;99.90;;;0.66;82.21;102301.91;5004863;28;20045;-68
2023/05/04 00:20:12;;;;;;;8.55;2.47;;;2.20;99.90;;;0.60;82.08;102302.69;5003564;28;20718;-68
2023/05/04 00:22:38;;;;;;;9.82;3.13;;;2.10;99.90;;;0.59;82.16;102297.44;5020330;28;20118;-68
2023/05/04 00:25:05;;;;;;;5.82;2.35;;;2.10;99.90;;;0.55;82.19;102295.63;5016907;28;20075;-68
2023/05/04 00:27:31;;;;;;;7.25;2.38;;;2.10;99.90;;;0.54;82.12;102294.78;5018320;28;20101;-69
2023/05/04 00:29:57;;;;;;;10.18;3.25;;;2.00;99.90;;;0.53;82.30;102293.00;5020627;28;20048;-68
2023/05/04 00:32:23;;;;;;;20.98;5.68;;;2.10;99.90;;;0.57;82.67;102288.78;5020400;28;20033;-68
2023/05/04 00:34:49;;;;;;;16.05;4.40;;;2.10;99.90;;;0.63;83.79;102293.19;5019390;28;20121;-68
2023/05/04 00:37:15;;;;;;;8.00;3.15;;;2.10;99.90;;;0.64;83.48;102290.63;5016018;28;20050;-68
2023/05/04 00:39:40;;;;;;;16.67;4.10;;;2.10;99.90;;;0.63;83.70;102294.09;5037211;28;20149;-68
2023/05/04 00:42:06;;;;;;;22.23;5.50;;;2.10;99.90;;;0.63;84.16;102291.50;5017586;28;20589;-68
2023/05/04 00:44:33;;;;;;;12.65;3.97;;;2.10;99.90;;;0.70;85.37;102295.06;5035770;28;20172;-68
2023/05/04 00:46:59;;;;;;;12.88;4.07;;;2.20;99.90;;;0.74;85.99;102296.88;5033053;28;20029;-68
2023/05/04 00:49:25;;;;;;;9.10;4.22;;;2.20;99.90;;;0.74;85.82;102300.34;5033155;28;20041;-68
2023/05/04 00:51:53;;;;;;;21.42;4.88;;;2.20;99.90;;;0.76;86.46;102301.25;5016932;28;20561;-68
2023/05/04 00:54:19;;;;;;;25.42;4.70;;;2.20;99.90;;;0.77;86.66;102297.78;5037217;28;20493;-68
2023/05/04 00:56:46;;;;;;;16.02;4.75;;;2.30;99.90;;;0.79;87.65;102296.09;5033590;28;20390;-68
2023/05/04 00:59:12;;;;;;;14.60;4.90;;;2.30;99.90;;;0.82;88.16;102295.28;5034460;28;20563;-68
2023/05/04 01:01:40;;;;;;;8.80;3.22;;;2.30;99.90;;;0.86;88.38;102297.09;5017487;28;20116;-68
2023/05/04 01:04:06;;;;;;;16.35;3.55;;;2.40;99.90;;;0.84;88.40;102293.59;5017045;28;20038;-68
2023/05/04 01:07:05;;;;;;;6.72;1.92;;;2.30;99.90;;;0.76;87.67;102298.66;5036849;28;20056;-68
2023/05/04 01:09:43;;;;;;;1.85;0.90;;;2.20;99.90;;;0.60;86.84;102297.50;5017347;28;20030;-68
2023/05/04 01:12:36;;;;;;;12.80;2.97;;;2.10;99.90;;;0.50;85.60;102295.56;5028461;28;20051;-68
2023/05/04 01:15:03;;;;;;;6.18;1.73;;;2.00;99.90;;;0.39;85.53;102290.16;5017671;28;20041;-68
2023/05/04 01:17:29;;;;;;;10.07;2.40;;;1.90;99.90;;;0.33;85.26;102281.38;5019701;28;20029;-68
2023/05/04 01:19:55;;;;;;;5.07;1.30;;;1.80;99.90;;;0.27;85.09;102281.25;5020061;28;20107;-68
2023/05/04 01:22:21;;;;;;;3.97;1.42;;;1.80;99.90;;;0.16;84.78;102275.84;5033650;28;20025;-68
2023/05/04 01:24:48;;;;;;;18.67;3.45;;;1.70;99.90;;;0.11;84.56;102274.84;5031413;28;20033;-68
2023/05/04 01:27:58;;;;;;;9.40;2.70;;;1.60;99.90;;;0.06;84.50;102279.06;5002357;28;20029;-68
2023/05/04 01:30:36;;;;;;;5.75;2.97;;;1.60;99.90;;;0.03;84.35;102279.03;5018685;28;20041;-68
2023/05/04 01:33:03;;;;;;;13.25;3.03;;;1.60;99.90;;;0.01;84.30;102271.22;5017294;28;20057;-68
2023/05/04 01:35:29;;;;;;;15.38;4.60;;;1.60;99.90;;;0.00;84.52;102272.06;5015743;28;20037;-68
2023/05/04 01:37:55;;;;;;;11.07;3.53;;;1.50;99.90;;;0.00;84.88;102269.47;5015216;28;20611;-68
2023/05/04 01:40:21;;;;;;;8.63;3.88;;;1.50;99.90;;;-0.02;84.94;102272.03;5018717;28;20041;-68
2023/05/04 01:42:47;;;;;;;16.83;4.90;;;1.50;99.90;;;-0.02;85.45;102272.03;5017914;28;20029;-68
2023/05/04 01:45:12;;;;;;;16.27;4.68;;;1.50;99.90;;;-0.01;85.57;102272.88;5033979;28;20080;-68
2023/05/04 01:47:39;;;;;;;14.07;3.50;;;1.50;99.90;;;-0.05;86.02;102271.06;5017377;28;20033;-68
2023/05/04 01:50:05;;;;;;;9.63;2.60;;;1.50;99.90;;;-0.07;86.07;102270.16;5015414;28;20486;-68
2023/05/04 01:52:31;;;;;;;8.10;3.20;;;1.50;99.90;;;-0.11;86.30;102268.34;5020023;28;20524;-68
2023/05/04 01:54:57;;;;;;;7.38;3.08;;;1.40;99.90;;;-0.13;86.82;102270.91;5034087;28;20045;-68
2023/05/04 01:57:23;;;;;;;14.30;3.25;;;1.40;99.90;;;-0.14;86.56;102257.94;5019640;28;20136;-68
2023/05/04 01:59:49;;;;;;;10.73;4.20;;;1.40;99.90;;;-0.15;86.01;102262.25;5001304;28;20037;-68
2023/05/04 02:02:15;;;;;;;30.98;5.95;;;1.40;99.90;;;-0.16;86.21;102257.88;5014247;28;20113;-68
2023/05/04 02:04:40;;;;;;;18.48;7.50;;;1.40;99.90;;;-0.15;86.48;102251.88;5021294;28;20030;-68
2023/05/04 02:07:07;;;;;;;31.17;8.25;;;1.40;99.90;;;-0.10;86.86;102258.03;5019717;28;20038;-68
2023/05/04 02:09:34;;;;;;;32.45;9.10;;;1.40;99.90;;;-0.05;87.58;102256.41;5015558;28;20156;-68
2023/05/04 02:11:59;;;;;;;20.67;7.38;;;1.50;99.90;;;0.02;88.25;102254.81;5016206;28;20410;-68
2023/05/04 02:14:25;;;;;;;28.85;6.53;;;1.50;99.90;;;0.08;88.73;102256.66;5016292;28;20026;-68
2023/05/04 02:16:51;;;;;;;23.65;6.85;;;1.60;99.90;;;0.14;89.72;102255.06;5033546;28;20041;-68
2023/05/04 02:19:17;;;;;;;14.32;4.60;;;1.70;99.90;;;0.18;90.24;102258.63;5017940;28;20502;-68
2023/05/04 02:21:43;;;;;;;25.63;7.60;;;1.60;99.90;;;0.14;89.74;102265.44;5016059;28;20036;-68
2023/05/04 02:24:08;;;;;;;26.17;7.65;;;1.60;99.90;;;0.13;89.89;102261.13;5032071;28;20119;-68
2023/05/04 02:26:37;;;;;;;22.08;7.25;;;1.60;99.90;;;0.07;89.82;102265.28;5019749;28;20034;-68
2023/05/04 02:29:04;;;;;;;35.28;8.75;;;1.60;99.90;;;0.01;89.96;102255.66;5019541;28;20022;-68
2023/05/04 02:31:31;;;;;;;29.27;8.63;;;1.50;99.90;;;0.01;90.33;102266.03;5033002;28;20084;-68
2023/05/04 02:33:57;;;;;;;24.27;8.20;;;1.50;99.90;;;0.01;90.36;102258.25;5033579;28;20038;-68
2023/05/04 02:36:23;;;;;;;23.77;7.78;;;1.60;99.90;;;0.05;90.83;102265.25;5017847;28;20071;-68
2023/05/04 02:38:50;;;;;;;28.10;8.52;;;1.60;99.90;;;0.06;91.32;102261.81;5033390;28;20482;-68
2023/05/04 02:41:16;;;;;;;34.10;9.52;;;1.60;99.90;;;0.06;91.57;102261.81;5017289;28;20048;-68
2023/05/04 02:43:41;;;;;;;25.83;8.50;;;1.60;99.90;;;0.05;91.98;102262.66;5017629;28;20037;-68
2023/05/04 02:46:07;;;;;;;33.47;9.95;;;1.60;99.90;;;0.08;92.24;102260.13;5015414;28;20507;-68
2023/05/04 02:48:33;;;;;;;19.90;8.05;;;1.60;99.90;;;0.13;92.36;102260.22;5034914;28;20076;-68
2023/05/04 02:50:59;;;;;;;27.98;8.73;;;1.60;99.90;;;0.14;92.34;102252.50;5019987;28;20032;-68
2023/05/04 02:53:25;;;;;;;19.55;7.22;;;1.70;99.90;;;0.13;93.07;102253.34;5035864;28;20486;-68
2023/05/04 02:55:51;;;;;;;21.92;8.02;;;1.60;99.90;;;0.13;93.05;102255.03;5020683;28;20104;-68
2023/05/04 02:58:17;;;;;;;23.13;7.10;;;1.60;99.90;;;0.13;92.88;102263.72;5037461;28;20025;-68
2023/05/04 03:00:42;;;;;;;23.60;8.18;;;1.70;99.90;;;0.17;93.25;102259.44;5018437;28;20034;-68
2023/05/04 03:03:08;;;;;;;21.67;6.78;;;1.70;99.90;;;0.23;93.52;102256.13;5021041;28;20529;-68
2023/05/04 03:05:34;;;;;;;17.02;6.57;;;1.70;99.90;;;0.22;93.70;102269.91;5020949;28;20022;-68
2023/05/04 03:08:00;;;;;;;23.73;5.68;;;1.70;99.90;;;0.15;93.67;102267.22;5020984;28;20149;-69
2023/05/04 03:10:25;;;;;;;10.82;4.53;;;1.60;99.90;;;0.07;93.44;102262.72;5021423;28;20026;-68
2023/05/04 03:12:51;;;;;;;16.52;5.60;;;1.60;99.90;;;-0.02;92.93;102256.47;5019276;28;20113;-68
2023/05/04 03:15:17;;;;;;;14.45;4.78;;;1.50;99.90;;;-0.11;92.44;102253.69;5018889;28;20040;-68
2023/05/04 03:17:43;;;;;;;13.93;5.80;;;1.40;99.90;;;-0.18;92.62;102250.94;5017976;28;20061;-68
2023/05/04 03:20:11;;;;;;;19.80;6.10;;;1.40;99.90;;;-0.14;92.90;102250.16;5036390;28;21201;-68
2023/05/04 03:22:37;;;;;;;17.77;6.38;;;1.40;99.90;;;-0.11;93.30;102255.38;5003637;28;20121;-68
2023/05/04 03:25:03;;;;;;;11.35;5.65;;;1.50;99.90;;;-0.07;93.14;102264.97;5017298;28;20097;-68
2023/05/04 03:27:29;;;;;;;28.65;6.88;;;1.50;99.90;;;-0.03;93.44;102265.06;5020017;28;20505;-68
2023/05/04 03:29:55;;;;;;;27.73;6.63;;;1.50;99.90;;;0.02;94.02;102260.00;5020410;28;20041;-68
2023/05/04 03:32:21;;;;;;;22.02;6.85;;;1.50;99.90;;;0.08;93.78;102261.84;5003472;28;20030;-68
2023/05/04 03:34:46;;;;;;;15.63;5.95;;;1.60;99.90;;;0.13;93.48;102262.81;5019720;28;20584;-68
2023/05/04 03:37:12;;;;;;;22.80;5.97;;;1.60;99.90;;;0.17;93.60;102260.34;5019780;28;20135;-68
2023/05/04 03:39:38;;;;;;;21.52;6.63;;;1.60;99.90;;;0.22;93.50;102264.72;5036341;28;20104;-68
2023/05/04 03:42:04;;;;;;;14.82;6.28;;;1.70;99.90;;;0.23;93.23;102261.31;5019786;28;20037;-67
2023/05/04 03:44:30;;;;;;;19.40;6.10;;;1.70;99.90;;;0.20;92.63;102256.94;5036538;28;20140;-68
2023/05/04 03:46:55;;;;;;;18.33;5.68;;;1.70;99.90;;;0.15;92.13;102262.03;5033935;28;20029;-68
2023/05/04 03:49:21;;;;;;;13.27;5.22;;;1.60;99.90;;;0.13;91.34;102260.22;5019238;28;20120;-70
2023/05/04 03:51:47;;;;;;;15.30;4.75;;;1.60;99.90;;;0.13;90.86;102265.41;5037379;28;20109;-68
2023/05/04 03:54:13;;;;;;;15.35;4.88;;;1.60;99.90;;;0.16;90.37;102257.72;5036974;28;20661;-68
2023/05/04 03:56:39;;;;;;;12.95;5.40;;;1.60;99.90;;;0.24;89.93;102265.63;5018758;28;20038;-68
2023/05/04 03:59:04;;;;;;;15.68;6.90;;;1.70;99.90;;;0.36;89.40;102264.16;5019009;28;20041;-68
2023/05/04 04:01:30;;;;;;;10.48;5.00;;;1.80;99.90;;;0.53;89.20;102264.50;5017664;28;20072;-68
2023/05/04 04:03:56;;;;;;;16.15;6.10;;;1.90;99.90;;;0.67;89.14;102259.59;5021245;28;20116;-68
2023/05/04 04:06:22;;;;;;;18.10;5.80;;;2.00;99.90;;;0.80;89.17;102260.69;5037836;28;20059;-68
2023/05/04 04:08:48;;;;;;;18.10;6.57;;;2.50;99.90;;;1.52;88.32;102277.47;5019275;28;20401;-68
2023/05/04 04:11:14;;;;;;;19.40;5.13;;;3.40;99.90;;;2.67;86.80;102291.13;5016566;28;20041;-68
2023/05/04 04:13:40;;;;;;;15.48;4.90;;;4.10;99.90;;;3.60;85.01;102295.44;5016583;28;20066;-68
2023/05/04 04:16:05;;;;;;;10.68;4.88;;;5.30;99.90;;;5.33;81.69;102305.69;5022608;28;20104;-68
2023/05/04 04:18:31;;;;;;;8.68;3.97;;;6.80;99.90;;;7.16;76.38;102323.44;5020042;28;20041;-68
2023/05/04 04:20:57;;;;;;;10.23;3.20;;;8.20;99.90;;;8.88;69.30;102331.34;5020184;28;20030;-68
2023/05/04 04:23:24;;;;;;;8.07;2.72;;;9.50;99.90;;;10.45;63.33;102340.97;5018948;28;20038;-68
2023/05/04 04:25:50;;;;;;;8.05;2.95;;;10.70;99.90;;;11.93;59.05;102344.59;5018518;28;20273;-69
2023/05/04 04:28:16;;;;;;;9.20;2.13;;;11.80;99.90;;;13.27;54.96;102360.06;5021122;28;20029;-68
2023/05/04 04:30:42;;;;;;;7.55;3.38;;;12.90;99.90;;;14.50;51.69;102383.22;5021898;28;20033;-68
2023/05/04 04:33:08;;;;;;;6.97;3.00;;;13.90;99.90;;;15.69;49.17;102389.25;5019002;28;20049;-69
2023/05/04 04:35:35;;;;;;;9.02;2.80;;;14.80;99.90;;;16.69;46.90;102395.53;5017913;28;20514;-68
2023/05/04 04:38:01;;;;;;;4.93;2.15;;;15.60;99.90;;;17.71;44.68;102407.56;5020922;28;20391;-68
2023/05/04 04:40:27;;;;;;;6.57;2.35;;;16.40;98.70;;;18.65;42.88;102415.13;5005207;28;20056;-68
2023/05/04 04:42:53;;;;;;;5.80;2.05;;;17.10;97.10;;;19.52;41.00;102424.56;5012220;28;20030;-68
2023/05/04 04:45:19;;;;;;;4.68;2.25;;;17.80;96.10;;;20.40;39.50;102430.13;5019950;28;20441;-68
2023/05/04 04:47:46;;;;;;;7.35;2.63;;;18.50;95.10;;;21.23;38.23;102441.88;5018653;28;20030;-68
2023/05/04 04:50:11;;;;;;;11.65;2.80;;;19.10;94.50;;;22.12;37.26;102454.72;5020231;28;20032;-68
2023/05/04 04:52:40;;;;;;;4.65;2.50;;;19.80;93.70;;;23.06;35.82;102469.69;5019130;28;20037;-69
2023/05/04 04:55:06;;;;;;;10.80;2.80;;;20.50;92.60;;;23.87;34.55;102481.69;5017729;28;20026;-69
2023/05/04 04:57:32;;;;;;;4.75;2.30;;;21.00;91.90;;;24.55;33.78;102492.66;5034665;28;20029;-69
2023/05/04 04:59:59;;;;;;;8.15;2.70;;;21.60;90.90;;;25.16;32.82;102500.38;5033974;28;20044;-69
2023/05/04 05:02:27;;;;;;;5.43;2.58;;;22.20;90.70;;;25.96;32.13;102521.72;5017484;28;20072;-69
2023/05/04 05:04:53;;;;;;;9.93;2.50;;;22.70;89.90;;;26.68;31.13;102528.22;5020412;28;20026;-69
2023/05/04 05:07:19;;;;;;;5.45;2.90;;;23.20;88.80;;;27.30;30.14;102539.91;5034966;28;20026;-69
2023/05/04 05:09:45;;;;;;;8.48;3.67;;;23.70;87.50;;;27.85;29.93;102544.88;5017432;28;20196;-69
2023/05/04 05:12:11;;;;;;;10.15;3.20;;;24.20;86.30;;;28.34;28.95;102551.16;5013006;28;20057;-69
2023/05/04 05:14:37;;;;;;;8.25;3.40;;;24.60;85.30;;;28.81;28.77;102558.47;5019588;28;20025;-69
2023/05/04 05:17:05;;;;;;;;;;;24.60;83.30;;;29.78;28.71;102563.47;5016864;28;20414;-69
2023/05/04 05:19:35;;;;;;;12.02;4.20;;;25.40;83.10;;;29.94;27.76;102573.66;5018639;28;20532;-69
2023/05/04 05:22:04;;;;;;;13.60;4.70;;;25.60;81.40;;;30.03;27.63;102566.44;5016547;28;20033;-70
2023/05/04 05:24:30;;;;;;;12.80;3.80;;;25.90;82.70;;;30.33;27.51;102572.53;5032151;28;20036;-70
2023/05/04 05:26:57;;;;;;;9.38;3.70;;;26.30;82.30;;;30.86;27.20;102580.56;5017973;28;20026;-70
2023/05/04 05:29:23;;;;;;;9.85;3.60;;;26.70;81.80;;;31.57;26.16;102589.41;5021275;28;20076;-70
2023/05/04 05:31:49;;;;;;;10.93;3.78;;;27.20;81.60;;;32.12;25.80;102598.03;5016477;28;20053;-70
2023/05/04 05:34:15;;;;;;;14.07;3.90;;;27.70;80.70;;;32.67;25.30;102602.84;5001468;28;20213;-70
2023/05/04 05:36:41;;;;;;;;;;;27.70;77.80;;;33.74;25.61;102608.81;5016964;28;20108;-70
2023/05/04 05:39:07;;;;;;;12.90;4.20;;;28.70;79.40;;;33.85;24.07;102613.88;5016914;28;19959;-70
2023/05/04 05:41:33;;;;;;;13.77;3.40;;;29.10;77.90;;;34.13;23.90;102607.03;5016341;28;20030;-70
2023/05/04 05:44:02;;;;;;;14.02;3.70;;;29.50;76.80;;;34.46;23.70;102605.72;5018991;28;20025;-70
2023/05/04 05:46:27;;;;;;;8.15;3.25;;;29.90;76.60;;;34.77;23.17;102604.75;5017340;28;20029;-70
2023/05/04 05:48:54;;;;;;;9.63;3.55;;;30.20;75.40;;;35.05;23.04;102607.69;5018998;28;20470;-69
2023/05/04 05:51:19;;;;;;;10.10;3.63;;;30.50;73.50;;;34.79;23.04;102602.69;5017743;28;20730;-70
2023/05/04 05:53:45;;;;;;;10.73;4.60;;;30.70;74.20;;;35.16;23.43;102611.03;5035029;28;20034;-70
2023/05/04 05:56:12;;;;;;;11.45;4.50;;;30.90;73.10;;;35.32;22.70;102617.16;5016347;28;20389;-70
2023/05/04 05:58:38;;;;;;;14.85;4.80;;;31.10;72.80;;;35.38;22.71;102623.78;5018730;28;20045;-70
2023/05/04 06:01:04;;;;;;;15.25;4.97;;;31.20;72.60;;;35.32;22.88;102614.41;5017278;28;20659;-70
2023/05/04 06:03:30;;;;;;;13.27;4.85;;;31.40;72.40;;;35.53;22.87;102616.38;5018447;28;20041;-70
2023/05/04 06:05:55;;;;;;;14.57;4.90;;;31.60;71.40;;;35.39;22.70;102621.88;5017984;28;20021;-71
2023/05/04 06:08:21;;;;;;;13.73;4.70;;;31.70;71.00;;;35.59;22.86;102622.97;5019451;28;20652;-70
2023/05/04 06:10:47;;;;;;;13.45;4.35;;;31.90;70.80;;;35.74;22.97;102621.06;5015870;28;20105;-70
2023/05/04 06:13:13;;;;;;;15.82;4.18;;;32.30;70.70;;;36.10;22.90;102628.41;5016248;28;20040;-70
2023/05/04 06:15:39;;;;;;;12.57;4.05;;;32.70;70.10;;;36.45;22.52;102627.69;5019955;28;20611;-70
2023/05/04 06:18:05;;;;;;;14.95;4.28;;;33.10;67.10;;;36.23;21.52;102615.91;5019615;28;20030;-70
2023/05/04 06:20:30;;;;;;;11.25;3.50;;;33.10;67.50;;;36.10;22.07;102614.69;5017316;28;20036;-70
2023/05/04 06:22:56;;;;;;;13.07;2.92;;;33.20;65.60;;;35.69;22.16;102612.59;5032381;28;20040;-70
2023/05/04 06:25:22;;;;;;;9.50;2.53;;;33.10;65.90;;;35.32;21.97;102610.84;5021997;28;20037;-71
2023/05/04 06:27:48;;;;;;;9.90;2.90;;;33.00;66.20;;;35.19;22.47;102602.47;5018267;28;20021;-70
2023/05/04 06:30:15;;;;;;;10.45;3.28;;;33.00;66.10;;;35.10;22.41;102598.94;5022193;28;20616;-70
2023/05/04 06:32:41;;;;;;;7.97;3.10;;;33.00;65.30;;;34.84;22.69;102592.06;5039099;28;20079;-70
2023/05/04 06:35:10;;;;;;;12.95;3.40;;;32.90;64.80;;;34.54;23.38;102580.19;5036607;28;20707;-70
2023/05/04 06:37:36;;;;;;;16.27;3.72;;;33.00;64.50;;;34.24;22.84;102582.00;5019776;28;20033;-70
2023/05/04 06:40:04;;;;;;;11.60;3.70;;;32.90;64.70;;;34.13;23.12;102571.50;5017222;28;20108;-70
2023/05/04 06:42:32;;;;;;;11.05;3.95;;;33.00;63.40;;;34.24;22.69;102579.28;5017908;28;20033;-70
2023/05/04 06:44:58;;;;;;;11.82;3.83;;;33.10;64.30;;;34.64;22.67;102582.69;5037416;28;20038;-70
2023/05/04 06:47:24;;;;;;;13.75;4.60;;;33.40;63.00;;;34.80;22.25;102582.50;5022208;28;20542;-70
2023/05/04 06:49:50;;;;;;;12.65;4.00;;;33.50;61.50;;;34.84;22.09;102589.31;5022894;28;20409;-70
2023/05/04 06:52:16;;;;;;;15.50;4.30;;;33.70;61.40;;;34.68;22.30;102579.38;5019253;28;20112;-70
2023/05/04 06:54:41;;;;;;;12.45;3.90;;;33.70;60.70;;;34.66;22.37;102572.41;5021133;28;20592;-70
2023/05/04 06:57:10;;;;;;;12.50;3.60;;;34.00;60.00;;;35.00;21.86;102591.00;5018752;28;20041;-70
2023/05/04 06:59:36;;;;;;;10.50;3.38;;;34.10;58.40;;;34.49;22.14;102579.88;5020748;28;20083;-70
2023/05/04 07:02:01;;;;;;;14.50;3.15;;;34.10;59.30;;;34.66;21.76;102583.34;5018284;28;20651;-70
2023/05/04 07:04:27;;;;;;;13.43;3.40;;;34.00;57.90;;;34.72;21.33;102582.59;5020148;28;20129;-70
2023/05/04 07:06:53;;;;;;;11.57;2.83;;;34.10;58.80;;;34.86;21.30;102572.69;5023458;28;20432;-70
2023/05/04 07:09:19;;;;;;;14.15;3.22;;;34.30;58.10;;;34.77;21.93;102562.88;5020373;28;20022;-70
2023/05/04 07:11:47;;;;;;;15.05;3.22;;;34.40;55.50;;;34.35;21.72;102564.31;5017668;28;20114;-70
2023/05/04 07:14:14;;;;;;;12.98;2.80;;;34.40;57.70;;;34.76;21.03;102559.31;5003705;28;20026;-70
2023/05/04 07:16:40;;;;;;;15.00;3.35;;;34.40;55.10;;;34.50;21.75;102563.31;5034265;28;20521;-70
2023/05/04 07:19:05;;;;;;;15.10;2.80;;;34.40;57.10;;;34.19;21.39;102562.56;5018411;28;20064;-70
2023/05/04 07:21:32;;;;;;;11.90;2.83;;;33.50;52.20;;;30.74;23.10;102535.59;5022152;28;20528;-70
2023/05/04 07:23:58;;;;;;;11.15;2.88;;;33.00;57.10;;;31.97;23.12;102537.91;5020332;28;20030;-70
2023/05/04 07:26:23;;;;;;;14.65;3.05;;;32.30;53.70;;;30.35;23.60;102522.44;5032512;28;20033;-70
2023/05/04 07:28:49;;;;;;;13.13;2.92;;;31.90;56.00;;;31.02;23.43;102533.56;5019899;28;20417;-70
2023/05/04 07:31:15;;;;;;;14.07;3.75;;;31.80;57.00;;;31.22;23.53;102525.13;5005680;28;20152;-70
2023/05/04 07:33:41;;;;;;;16.00;3.03;;;31.90;56.90;;;31.38;23.67;102527.03;5020428;28;20083;-70
2023/05/04 07:36:07;;;;;;;11.73;3.13;;;31.70;57.20;;;31.17;23.71;102517.47;5036735;28;20080;-70
2023/05/04 07:38:33;;;;;;;15.00;3.13;;;31.70;55.20;;;30.36;23.75;102507.81;5034775;28;20041;-70
2023/05/04 07:40:59;;;;;;;13.60;2.97;;;30.80;54.30;;;28.77;24.61;102489.31;5016897;28;20038;-70
2023/05/04 07:43:25;;;;;;;12.25;2.92;;;30.40;55.40;;;29.37;24.05;102486.16;5022623;28;20034;-70
2023/05/04 07:45:52;;;;;;;11.88;2.70;;;30.20;55.80;;;29.23;25.17;102490.28;5018484;28;20045;-70
2023/05/04 07:48:19;;;;;;;13.18;3.53;;;29.70;58.80;;;28.93;26.13;102475.13;5036254;28;20030;-70
2023/05/04 07:50:45;;;;;;;9.65;2.72;;;29.80;59.00;;;29.21;24.98;102478.72;5035164;28;20034;-70
2023/05/04 07:53:11;;;;;;;14.73;3.00;;;29.80;57.20;;;29.20;25.06;102483.28;5001398;28;20556;-70
2023/05/04 07:55:37;;;;;;;11.80;2.90;;;29.90;58.20;;;29.18;24.73;102484.44;5038226;28;20045;-70
2023/05/04 07:58:03;;;;;;;16.25;3.13;;;29.80;58.60;;;29.22;25.00;102484.00;5017902;28;20076;-70
2023/05/04 08:00:30;;;;;;;8.55;2.58;;;29.90;59.20;;;29.50;25.19;102491.22;5036262;28;20061;-70
2023/05/04 08:02:55;;;;;;;9.15;2.78;;;29.90;57.20;;;28.82;25.27;102478.88;5019307;28;20108;-70
2023/05/04 08:05:21;;;;;;;15.10;2.92;;;29.50;56.30;;;28.07;25.47;102462.53;5018739;28;20125;-70
2023/05/04 08:07:47;;;;;;;11.88;2.67;;;28.90;57.50;;;27.65;25.83;102454.69;5022687;28;20029;-70
2023/05/04 08:10:13;;;;;;;10.02;2.72;;;28.40;57.80;;;27.50;26.72;102446.13;5035496;28;20036;-70
2023/05/04 08:12:39;;;;;;;13.20;3.03;;;28.40;60.60;;;27.92;26.58;102448.56;5017315;28;20041;-70
2023/05/04 08:15:06;;;;;;;15.13;3.40;;;28.50;61.00;;;28.22;26.48;102436.69;5017354;28;20544;-70
2023/05/04 08:17:33;;;;;;;10.38;2.63;;;28.60;58.90;;;28.11;26.27;102426.03;5020971;28;20033;-70
2023/05/04 08:20:00;;;;;;;12.40;2.78;;;28.40;59.90;;;27.51;27.13;102409.94;5019794;28;20043;-70
2023/05/04 08:22:26;;;;;;;9.13;3.05;;;27.90;59.20;;;26.52;27.70;102395.44;5019208;28;20095;-70
2023/05/04 08:24:52;;;;;;;18.27;3.30;;;27.20;59.90;;;26.04;28.41;102390.66;5018644;28;20724;-70
2023/05/04 08:27:18;;;;;;;13.27;3.03;;;26.60;60.40;;;25.51;29.10;102388.84;5017780;28;20379;-70
2023/05/04 08:29:43;;;;;;;10.93;2.85;;;26.20;62.10;;;25.62;29.11;102386.09;5034513;28;20026;-70
2023/05/04 08:32:09;;;;;;;8.98;2.70;;;26.00;62.90;;;25.63;29.47;102384.25;5021320;28;20041;-70
2023/05/04 08:34:36;;;;;;;10.40;2.70;;;26.00;63.30;;;25.93;28.90;102386.19;5017148;28;20029;-71
2023/05/04 08:37:03;;;;;;;13.70;2.95;;;25.90;62.00;;;25.24;29.50;102365.88;5018747;28;20084;-71
2023/05/04 08:39:29;;;;;;;9.88;2.63;;;25.60;63.30;;;24.99;29.77;102358.97;5019013;28;20026;-71
2023/05/04 08:41:55;;;;;;;10.10;2.75;;;24.80;61.00;;;22.96;31.58;102342.38;5016738;28;20041;-71
2023/05/04 08:44:24;;;;;;;9.88;2.80;;;23.80;64.90;;;21.99;33.54;102324.28;5018671;28;20025;-71
2023/05/04 08:46:52;;;;;;;12.38;3.15;;;23.40;65.60;;;22.41;32.36;102339.16;5034690;28;20519;-71
2023/05/04 08:49:22;;;;;;;9.23;2.60;;;22.80;66.50;;;21.37;33.16;102319.53;5000887;28;20029;-71
2023/05/04 08:51:50;;;;;;;10.95;2.75;;;22.10;71.00;;;20.97;35.77;102303.41;5017577;28;20084;-71
2023/05/04 08:54:17;;;;;;;10.35;2.70;;;22.00;71.00;;;21.54;34.97;102318.44;5036651;28;20113;-71
2023/05/04 08:56:45;;;;;;;13.13;2.97;;;22.10;69.80;;;21.48;34.49;102307.16;5016993;28;20121;-71
2023/05/04 08:59:21;;;;;;;15.43;3.17;;;22.20;70.70;;;21.90;34.62;102298.97;5018738;28;20049;-71
2023/05/04 09:02:00;;;;;;;10.32;3.08;;;22.40;70.30;;;22.20;34.49;102301.31;5016759;28;20073;-71
2023/05/04 09:04:27;;;;;;;9.68;3.13;;;22.40;71.10;;;21.99;34.30;102308.19;5037188;28;20723;-71
2023/05/04 09:06:57;;;;;;;16.15;3.45;;;22.40;71.10;;;21.96;33.97;102316.41;5019173;28;20030;-71
2023/05/04 09:09:30;;;;;;;9.77;2.40;;;22.30;70.10;;;21.94;34.18;102316.53;5017920;28;20033;-71
2023/05/04 09:11:57;;;;;;;13.05;3.13;;;22.30;71.70;;;21.96;35.47;102313.75;5016661;28;20490;-71
2023/05/04 09:14:32;;;;;;;9.45;2.83;;;22.40;72.30;;;21.79;35.79;102312.22;5017418;28;20044;-70
2023/05/04 09:17:11;;;;;;;9.80;2.80;;;22.40;70.80;;;21.77;34.65;102319.50;5019858;28;20138;-71
2023/05/04 09:19:43;;;;;;;11.00;2.80;;;22.30;70.60;;;21.36;34.86;102302.59;5034119;28;20045;-71
2023/05/04 09:22:16;;;;;;;10.57;3.20;;;22.10;71.20;;;21.13;35.49;102303.28;5032236;28;20052;-71
2023/05/04 09:24:44;;;;;;;11.70;2.97;;;21.80;71.50;;;20.99;35.94;102286.31;5017096;28;20030;-71
2023/05/04 09:27:16;;;;;;;10.38;2.83;;;21.60;71.10;;;20.85;35.53;102278.31;5017694;28;20026;-71
2023/05/04 09:29:53;;;;;;;12.85;2.92;;;21.40;73.50;;;20.57;36.69;102279.22;5018360;28;20533;-71
2023/05/04 09:32:19;;;;;;;14.02;3.05;;;21.30;72.40;;;20.66;35.80;102274.16;5032192;28;20462;-71
2023/05/04 09:34:55;;;;;;;13.20;2.97;;;21.10;74.40;;;20.11;36.96;102258.94;5001843;28;20125;-71
2023/05/04 09:37:21;;;;;;;10.87;2.70;;;20.80;74.90;;;19.81;37.66;102262.56;5030294;28;20724;-71
2023/05/04 09:39:59;;;;;;;12.95;3.08;;;20.70;74.80;;;20.04;37.67;102260.25;5017245;28;20030;-71
2023/05/04 09:42:28;;;;;;;15.90;3.00;;;20.80;75.40;;;20.40;37.27;102264.25;5015836;28;20068;-71
2023/05/04 09:45:09;;;;;;;16.27;2.60;;;20.90;75.20;;;20.60;36.46;102263.00;5014978;28;20049;-71
2023/05/04 09:47:43;;;;;;;8.68;2.33;;;21.00;75.20;;;20.71;37.40;102273.84;5018478;28;20041;-71
2023/05/04 09:50:25;;;;;;;7.18;2.25;;;21.10;75.50;;;20.51;36.28;102269.75;5016382;28;20398;-71
2023/05/04 09:52:59;;;;;;;9.30;2.20;;;21.10;74.00;;;20.46;37.21;102271.88;5000815;28;20038;-71
2023/05/04 09:55:27;;;;;;;15.07;3.00;;;21.10;74.50;;;20.49;36.35;102266.31;5017565;28;20083;-71
2023/05/04 09:57:56;;;;;;;11.13;2.50;;;21.00;72.30;;;20.24;36.46;102256.34;5021506;28;20034;-70
2023/05/04 10:00:27;;;;;;;11.32;2.67;;;21.00;73.60;;;20.35;36.66;102261.88;5020931;28;20398;-71
2023/05/04 10:02:54;;;;;;;10.52;2.45;;;21.00;73.80;;;20.39;36.79;102255.38;5019303;28;20046;-70
2023/05/04 10:05:20;;;;;;;9.30;2.83;;;20.80;72.10;;;19.65;36.85;102237.66;5021951;28;20045;-71
2023/05/04 10:07:46;;;;;;;9.52;2.38;;;20.70;75.10;;;19.85;38.28;102240.03;5022854;28;20088;-71
2023/05/04 10:10:14;;;;;;;8.90;2.20;;;20.70;75.20;;;19.96;37.73;102236.69;5020215;28;20038;-71
2023/05/04 10:12:43;;;;;;;10.00;2.58;;;20.80;77.40;;;20.38;38.00;102237.59;5019141;28;20049;-71